createdAt,value
2023-03-15T00:01:27.297Z,1.30
2023-03-15T00:03:56.015Z,1.26
2023-03-15T00:06:23.585Z,1.29
2023-03-15T00:08:52.069Z,1.24
2023-03-15T00:11:20.373Z,1.15
2023-03-15T00:13:49.151Z,1.23
2023-03-15T00:16:18.280Z,1.17
2023-03-15T00:18:46.961Z,1.12
2023-03-15T00:21:14.967Z,1.14
2023-03-15T00:23:42.472Z,1.23
2023-03-15T00:26:09.967Z,1.22
2023-03-15T00:28:37.550Z,1.21
2023-03-15T00:31:09.335Z,1.14
2023-03-15T00:33:36.908Z,1.15
2023-03-15T00:36:06.048Z,1.08
2023-03-15T00:38:33.756Z,1.07
2023-03-15T00:41:05.662Z,1.17
2023-03-15T00:43:33.623Z,1.09
2023-03-15T00:46:01.525Z,1.07
2023-03-15T00:48:30.503Z,0.95
2023-03-15T00:51:08.908Z,1.06
2023-03-15T00:53:37.006Z,1.05
2023-03-15T00:56:06.128Z,0.95
2023-03-15T00:58:33.605Z,0.99
2023-03-15T01:01:01.490Z,1.05
2023-03-15T01:03:30.298Z,1.01
2023-03-15T01:05:57.761Z,1.01
2023-03-15T01:08:25.354Z,0.88
2023-03-15T01:10:52.821Z,0.89
2023-03-15T01:13:20.305Z,0.94
2023-03-15T01:15:48.489Z,0.97
2023-03-15T01:18:15.988Z,0.90
2023-03-15T01:20:45.903Z,0.93
2023-03-15T01:23:13.371Z,0.88
2023-03-15T01:25:41.096Z,0.94
2023-03-15T01:28:08.554Z,0.92
2023-03-15T01:30:36.057Z,0.90
2023-03-15T01:33:03.521Z,0.94
2023-03-15T01:35:31.093Z,0.89
2023-03-15T01:37:59.914Z,0.90
2023-03-15T01:40:27.390Z,0.88
2023-03-15T01:43:15.033Z,0.90
2023-03-15T01:46:08.380Z,0.94
2023-03-15T01:48:38.501Z,0.83
2023-03-15T01:51:09.695Z,0.84
2023-03-15T01:53:39.362Z,0.83
2023-03-15T01:56:07.619Z,0.87
2023-03-15T01:58:36.938Z,0.78
2023-03-15T02:01:04.936Z,0.83
2023-03-15T02:03:36.248Z,0.76
2023-03-15T02:06:06.953Z,0.71
2023-03-15T02:08:39.075Z,0.76
2023-03-15T02:11:07.036Z,0.82
2023-03-15T02:13:35.544Z,0.88
2023-03-15T02:16:06.680Z,0.81
2023-03-15T02:18:36.593Z,0.86
2023-03-15T02:21:11.607Z,0.83
2023-03-15T02:23:40.700Z,0.72
2023-03-15T02:26:14.952Z,0.74
2023-03-15T02:28:44.813Z,0.77
2023-03-15T02:31:12.477Z,0.71
2023-03-15T02:33:43.122Z,0.74
2023-03-15T02:36:16.583Z,0.75
2023-03-15T02:38:44.068Z,0.77
2023-03-15T02:41:11.645Z,0.80
2023-03-15T02:43:40.001Z,0.84
2023-03-15T02:46:09.007Z,0.92
2023-03-15T02:48:37.003Z,0.90
2023-03-15T02:51:04.631Z,0.89
2023-03-15T02:53:33.276Z,0.92
2023-03-15T02:56:00.824Z,0.94
2023-03-15T02:58:28.806Z,0.95
2023-03-15T03:00:56.321Z,0.95
2023-03-15T03:03:25.129Z,1.05
2023-03-15T03:05:52.581Z,0.95
2023-03-15T03:08:20.038Z,1.01
2023-03-15T03:10:47.527Z,1.03
2023-03-15T03:13:15.439Z,1.05
2023-03-15T03:15:45.579Z,1.11
2023-03-15T03:18:13.087Z,1.10
2023-03-15T03:20:41.997Z,1.02
2023-03-15T03:23:09.458Z,1.14
2023-03-15T03:25:37.525Z,1.06
2023-03-15T03:28:05.011Z,1.04
2023-03-15T03:30:32.595Z,1.00
2023-03-15T03:33:00.273Z,0.89
2023-03-15T03:35:28.820Z,0.90
2023-03-15T03:37:57.608Z,0.98
2023-03-15T03:40:25.153Z,0.93
2023-03-15T03:42:52.610Z,0.85
2023-03-15T03:45:20.082Z,1.00
2023-03-15T03:47:47.954Z,0.96
2023-03-15T03:50:15.475Z,0.94
2023-03-15T03:52:43.950Z,1.01
2023-03-15T03:55:13.753Z,0.96
2023-03-15T03:57:41.606Z,0.92
2023-03-15T04:00:12.742Z,0.98
2023-03-15T04:02:42.516Z,0.94
2023-03-15T04:05:11.201Z,0.97
2023-03-15T04:07:38.942Z,0.98
2023-03-15T04:10:07.076Z,0.97
2023-03-15T04:12:35.883Z,0.97
2023-03-15T04:15:03.456Z,1.02
2023-03-15T04:17:30.915Z,1.05
2023-03-15T04:19:59.229Z,1.05
2023-03-15T04:22:26.743Z,0.98
2023-03-15T04:24:54.224Z,1.02
2023-03-15T04:27:21.675Z,1.04
2023-03-15T04:29:50.650Z,0.99
2023-03-15T04:32:18.184Z,0.95
2023-03-15T04:34:46.186Z,1.03
2023-03-15T04:37:13.673Z,0.93
2023-03-15T04:39:42.752Z,0.99
2023-03-15T04:42:10.813Z,0.97
2023-03-15T04:44:38.298Z,0.92
2023-03-15T04:47:07.461Z,0.86
2023-03-15T04:49:35.189Z,0.91
2023-03-15T04:52:02.691Z,0.83
2023-03-15T04:54:30.158Z,0.84
2023-03-15T04:56:57.618Z,0.81
2023-03-15T04:59:25.132Z,0.84
2023-03-15T05:01:52.655Z,0.85
2023-03-15T05:04:21.493Z,0.79
2023-03-15T05:06:48.979Z,0.82
2023-03-15T05:09:19.096Z,0.72
2023-03-15T05:11:47.050Z,0.93
2023-03-15T05:14:14.838Z,0.84
2023-03-15T05:16:43.235Z,0.76
2023-03-15T05:19:11.217Z,0.81
2023-03-15T05:21:40.013Z,0.79
2023-03-15T05:24:07.641Z,0.83
2023-03-15T05:26:35.526Z,0.85
2023-03-15T05:29:03.637Z,0.87
2023-03-15T05:31:36.757Z,0.83
2023-03-15T05:34:04.401Z,0.90
2023-03-15T05:36:31.923Z,0.93
2023-03-15T05:39:05.531Z,0.92
2023-03-15T05:41:33.798Z,0.90
2023-03-15T05:44:03.600Z,0.97
2023-03-15T05:46:31.914Z,1.00
2023-03-15T05:48:59.402Z,1.02
2023-03-15T05:51:26.887Z,1.02
2023-03-15T05:53:54.882Z,1.09
2023-03-15T05:56:23.654Z,1.02
2023-03-15T05:58:51.128Z,1.07
2023-03-15T06:01:18.602Z,1.08
2023-03-15T06:03:46.210Z,1.09
2023-03-15T06:06:13.892Z,1.14
2023-03-15T06:08:41.380Z,1.20
2023-03-15T06:11:08.861Z,1.26
2023-03-15T06:13:37.666Z,1.23
2023-03-15T06:16:05.855Z,1.26
2023-03-15T06:18:33.374Z,1.31
2023-03-15T06:21:00.830Z,1.29
2023-03-15T06:23:28.309Z,1.30
2023-03-15T06:25:55.780Z,1.32
2023-03-15T06:28:23.237Z,1.37
2023-03-15T06:30:52.034Z,1.31
2023-03-15T06:33:19.509Z,1.36
2023-03-15T06:35:47.727Z,1.34
2023-03-15T06:38:15.308Z,1.33
2023-03-15T06:40:42.797Z,1.44
2023-03-15T06:43:14.066Z,1.39
2023-03-15T06:45:41.567Z,1.52
2023-03-15T06:48:10.322Z,1.47
2023-03-15T06:50:46.927Z,1.52
2023-03-15T06:53:15.512Z,1.49
2023-03-15T06:55:43.016Z,1.51
2023-03-15T06:58:10.489Z,1.49
2023-03-15T07:00:38.214Z,1.46
2023-03-15T07:03:05.746Z,1.56
2023-03-15T07:05:34.566Z,1.60
2023-03-15T07:08:02.040Z,1.71
2023-03-15T07:10:29.730Z,1.67
2023-03-15T07:12:57.188Z,1.70
2023-03-15T07:15:24.696Z,1.72
2023-03-15T07:17:52.157Z,1.74
2023-03-15T07:20:19.685Z,1.80
2023-03-15T07:22:49.764Z,1.74
2023-03-15T07:25:23.739Z,1.90
2023-03-15T07:27:51.378Z,2.01
2023-03-15T07:30:19.351Z,1.94
2023-03-15T07:32:47.040Z,1.92
2023-03-15T07:35:15.047Z,1.86
2023-03-15T07:37:44.759Z,2.02
2023-03-15T07:40:15.966Z,2.02
2023-03-15T07:42:43.757Z,2.05
2023-03-15T07:45:12.381Z,2.18
2023-03-15T07:47:39.831Z,2.21
2023-03-15T07:50:07.828Z,2.26
2023-03-15T07:52:35.352Z,2.29
2023-03-15T07:55:04.783Z,2.02
2023-03-15T07:57:33.609Z,2.38
2023-03-15T08:00:01.084Z,2.50
2023-03-15T08:02:30.564Z,2.15
2023-03-15T08:04:58.709Z,2.35
2023-03-15T08:07:26.413Z,2.40
2023-03-15T08:09:53.891Z,2.30
2023-03-15T08:12:21.327Z,2.20
2023-03-15T08:14:51.362Z,2.50
2023-03-15T08:17:18.942Z,2.16
2023-03-15T08:19:46.422Z,2.45
2023-03-15T08:22:13.906Z,2.36
2023-03-15T08:24:41.411Z,2.50
2023-03-15T08:27:09.370Z,2.91
2023-03-15T08:29:37.237Z,2.81
2023-03-15T08:32:06.610Z,2.64
2023-03-15T08:34:35.454Z,2.41
2023-03-15T08:37:03.112Z,2.50
2023-03-15T08:39:30.581Z,2.71
2023-03-15T08:41:58.032Z,2.66
2023-03-15T08:44:25.598Z,2.52
2023-03-15T08:46:53.147Z,2.78
2023-03-15T08:49:21.996Z,2.77
2023-03-15T08:51:49.487Z,3.35
2023-03-15T08:54:16.978Z,3.39
2023-03-15T08:56:44.525Z,3.17
2023-03-15T08:59:19.211Z,2.81
2023-03-15T09:01:49.786Z,3.02
2023-03-15T09:04:17.319Z,2.56
2023-03-15T09:06:46.303Z,2.51
2023-03-15T09:09:17.452Z,2.58
2023-03-15T09:11:45.327Z,2.40
2023-03-15T09:14:12.796Z,2.51
2023-03-15T09:16:40.335Z,2.89
2023-03-15T09:19:07.881Z,3.58
2023-03-15T09:21:35.380Z,3.26
2023-03-15T09:24:04.398Z,3.47
2023-03-15T09:26:31.860Z,3.54
2023-03-15T09:28:59.332Z,3.68
2023-03-15T09:31:26.890Z,3.73
2023-03-15T09:33:54.398Z,3.77
2023-03-15T09:36:21.877Z,4.20
2023-03-15T09:38:49.343Z,3.61
2023-03-15T09:41:22.192Z,3.67
2023-03-15T09:44:05.256Z,4.12
2023-03-15T09:46:35.092Z,4.95
2023-03-15T09:49:08.916Z,4.00
2023-03-15T09:51:40.816Z,4.00
2023-03-15T09:54:12.329Z,4.73
2023-03-15T09:56:45.503Z,4.21
2023-03-15T09:59:16.288Z,4.58
2023-03-15T10:01:44.153Z,3.98
2023-03-15T10:04:15.183Z,3.88
2023-03-15T10:06:46.127Z,3.40
2023-03-15T10:09:17.659Z,3.72
2023-03-15T10:11:51.128Z,3.30
2023-03-15T10:14:25.586Z,3.27
2023-03-15T10:16:53.090Z,4.44
2023-03-15T10:19:27.096Z,4.35
2023-03-15T10:21:59.127Z,4.57
2023-03-15T10:24:32.134Z,4.37
2023-03-15T10:27:01.057Z,4.59
2023-03-15T10:29:29.124Z,4.52
2023-03-15T10:31:56.631Z,4.76
2023-03-15T10:34:26.114Z,4.76
2023-03-15T10:36:55.281Z,4.41
2023-03-15T10:39:24.538Z,4.05
2023-03-15T10:41:52.166Z,4.53
2023-03-15T10:44:22.062Z,4.37
2023-03-15T10:47:21.470Z,5.12
2023-03-15T10:49:50.013Z,5.70
2023-03-15T10:52:44.857Z,5.03
2023-03-15T10:55:14.403Z,4.18
2023-03-15T10:57:53.001Z,4.43
2023-03-15T11:00:29.440Z,4.50
2023-03-15T11:03:04.426Z,4.60
2023-03-15T11:05:33.060Z,4.87
2023-03-15T11:08:02.020Z,4.52
2023-03-15T11:10:34.289Z,5.51
2023-03-15T11:13:13.009Z,5.50
2023-03-15T11:15:50.253Z,4.78
2023-03-15T11:18:20.408Z,4.83
2023-03-15T11:20:47.936Z,5.42
2023-03-15T11:23:17.368Z,6.74
2023-03-15T11:25:45.108Z,5.48
2023-03-15T11:28:18.354Z,6.31
2023-03-15T11:30:48.699Z,7.15
2023-03-15T11:33:28.436Z,6.06
2023-03-15T11:35:57.370Z,7.63
2023-03-15T11:38:28.032Z,6.77
2023-03-15T11:40:57.645Z,5.32
2023-03-15T11:43:27.146Z,5.24
2023-03-15T11:45:57.595Z,6.15
2023-03-15T11:48:29.209Z,6.37
2023-03-15T11:50:57.132Z,5.20
2023-03-15T11:53:26.516Z,4.71
2023-03-15T11:55:54.781Z,3.47
2023-03-15T11:58:31.900Z,2.73
2023-03-15T12:01:03.688Z,4.17
2023-03-15T12:03:40.962Z,3.46
2023-03-15T12:06:36.082Z,2.58
2023-03-15T12:09:09.262Z,4.12
2023-03-15T12:11:39.898Z,5.01
2023-03-15T12:14:22.774Z,3.10
2023-03-15T12:16:51.656Z,5.38
2023-03-15T12:19:20.886Z,4.56
2023-03-15T12:21:51.118Z,4.57
2023-03-15T12:24:23.278Z,5.75
2023-03-15T12:26:51.912Z,3.87
2023-03-15T12:29:22.358Z,3.75
2023-03-15T12:31:59.343Z,3.32
2023-03-15T12:34:37.088Z,3.22
2023-03-15T12:37:07.796Z,3.67
2023-03-15T12:39:44.560Z,4.28
2023-03-15T12:42:54.181Z,4.05
2023-03-15T12:45:37.508Z,4.21
2023-03-15T12:48:24.351Z,4.05
2023-03-15T12:50:57.692Z,4.75
2023-03-15T12:53:30.718Z,5.90
2023-03-15T12:56:08.627Z,6.19
2023-03-15T12:58:37.940Z,4.28
2023-03-15T13:01:07.391Z,5.27
2023-03-15T13:03:37.204Z,5.73
2023-03-15T13:06:11.882Z,6.28
2023-03-15T13:08:44.180Z,5.51
2023-03-15T13:11:18.889Z,6.27
2023-03-15T13:13:59.495Z,5.21
2023-03-15T13:16:32.151Z,4.55
2023-03-15T13:19:07.110Z,5.67
2023-03-15T13:21:36.644Z,5.80
2023-03-15T13:24:11.335Z,5.80
2023-03-15T13:26:46.394Z,5.29
2023-03-15T13:29:17.545Z,4.91
2023-03-15T13:31:45.474Z,4.62
2023-03-15T13:34:16.529Z,5.02
2023-03-15T13:36:46.484Z,4.42
2023-03-15T13:39:19.964Z,4.37
2023-03-15T13:41:47.645Z,4.27
2023-03-15T13:44:19.867Z,4.64
2023-03-15T13:46:49.026Z,4.16
2023-03-15T13:49:18.230Z,4.37
2023-03-15T13:51:46.451Z,4.13
2023-03-15T13:54:18.308Z,4.37
2023-03-15T13:56:56.674Z,4.80
2023-03-15T13:59:25.117Z,4.70
2023-03-15T14:01:54.155Z,4.83
2023-03-15T14:04:23.650Z,4.69
2023-03-15T14:06:51.289Z,4.38
2023-03-15T14:09:22.046Z,4.35
2023-03-15T14:12:02.553Z,4.27
2023-03-15T14:14:31.789Z,4.83
2023-03-15T14:17:05.675Z,4.13
2023-03-15T14:19:35.980Z,4.19
2023-03-15T14:22:05.173Z,4.30
2023-03-15T14:24:36.738Z,4.07
2023-03-15T14:27:07.733Z,4.03
2023-03-15T14:29:36.805Z,3.79
2023-03-15T14:32:06.498Z,3.87
2023-03-15T14:34:38.668Z,4.14
2023-03-15T14:37:10.072Z,3.99
2023-03-15T14:39:42.764Z,4.08
2023-03-15T14:42:11.991Z,4.31
2023-03-15T14:44:39.600Z,4.71
2023-03-15T14:47:11.458Z,5.63
2023-03-15T14:49:40.329Z,4.66
2023-03-15T14:52:08.655Z,4.20
2023-03-15T14:54:36.132Z,4.34
2023-03-15T14:57:03.626Z,4.33
2023-03-15T14:59:31.090Z,4.23
2023-03-15T15:02:00.031Z,4.20
2023-03-15T15:04:31.003Z,4.08
2023-03-15T15:07:02.317Z,4.11
2023-03-15T15:09:30.981Z,4.72
2023-03-15T15:11:58.683Z,4.61
2023-03-15T15:14:26.191Z,4.40
2023-03-15T15:16:53.788Z,4.33
2023-03-15T15:19:21.295Z,4.17
2023-03-15T15:21:48.758Z,4.01
2023-03-15T15:24:20.788Z,4.18
2023-03-15T15:26:48.463Z,4.76
2023-03-15T15:29:17.351Z,4.35
2023-03-15T15:31:45.671Z,4.55
2023-03-15T15:34:13.579Z,4.84
2023-03-15T15:36:42.253Z,4.76
2023-03-15T15:39:19.250Z,6.73
2023-03-15T15:41:46.712Z,5.19
2023-03-15T15:44:16.732Z,5.33
2023-03-15T15:46:44.217Z,5.15
2023-03-15T15:49:11.709Z,4.48
2023-03-15T15:51:41.589Z,5.91
2023-03-15T15:54:14.299Z,6.51
2023-03-15T15:56:46.659Z,5.37
2023-03-15T15:59:15.743Z,5.43
2023-03-15T16:01:59.019Z,4.51
2023-03-15T16:04:28.975Z,5.80
2023-03-15T16:06:58.495Z,5.22
2023-03-15T16:09:26.585Z,5.35
2023-03-15T16:11:56.012Z,4.37
2023-03-15T16:14:23.493Z,4.42
2023-03-15T16:16:51.002Z,4.13
2023-03-15T16:19:19.072Z,3.84
2023-03-15T16:22:02.160Z,4.13
2023-03-15T16:24:31.771Z,4.47
2023-03-15T16:27:02.065Z,4.26
2023-03-15T16:29:33.864Z,4.04
2023-03-15T16:32:13.876Z,3.80
2023-03-15T16:34:41.717Z,3.77
2023-03-15T16:37:12.816Z,4.14
2023-03-15T16:39:41.116Z,3.89
2023-03-15T16:42:11.996Z,3.98
2023-03-15T16:44:40.121Z,4.09
2023-03-15T16:47:08.046Z,4.67
2023-03-15T16:49:35.829Z,4.57
2023-03-15T16:52:04.950Z,5.27
2023-03-15T16:54:41.035Z,4.61
2023-03-15T16:57:15.221Z,4.22
2023-03-15T16:59:42.680Z,4.86
2023-03-15T17:02:17.832Z,4.71
2023-03-15T17:04:45.725Z,5.99
2023-03-15T17:07:14.363Z,3.97
2023-03-15T17:09:42.205Z,4.26
2023-03-15T17:12:15.970Z,3.80
2023-03-15T17:14:43.462Z,3.96
2023-03-15T17:17:11.331Z,3.99
2023-03-15T17:19:38.815Z,3.87
2023-03-15T17:22:07.083Z,3.63
2023-03-15T17:24:34.763Z,3.90
2023-03-15T17:27:02.452Z,3.37
2023-03-15T17:29:31.286Z,3.34
2023-03-15T17:31:58.828Z,3.55
2023-03-15T17:34:26.743Z,3.37
2023-03-15T17:36:55.919Z,3.09
2023-03-15T17:39:23.383Z,3.55
2023-03-15T17:41:50.843Z,3.74
2023-03-15T17:44:18.353Z,3.73
2023-03-15T17:46:47.191Z,3.94
2023-03-15T17:49:16.190Z,3.13
2023-03-15T17:51:43.925Z,3.21
2023-03-15T17:54:13.867Z,2.89
2023-03-15T17:56:41.712Z,2.70
2023-03-15T17:59:11.742Z,2.49
2023-03-15T18:01:39.765Z,2.50
2023-03-15T18:04:11.332Z,2.52
2023-03-15T18:06:38.817Z,3.48
2023-03-15T18:09:06.525Z,2.36
2023-03-15T18:11:35.779Z,2.26
2023-03-15T18:14:03.938Z,2.36
2023-03-15T18:16:31.947Z,1.88
2023-03-15T18:18:59.690Z,1.50
2023-03-15T18:21:28.605Z,1.19
2023-03-15T18:23:56.268Z,1.01
2023-03-15T18:26:24.059Z,0.93
2023-03-15T18:28:51.744Z,0.71
2023-03-15T18:31:21.196Z,0.63
2023-03-15T18:33:49.259Z,0.95
2023-03-15T18:36:16.957Z,0.50
2023-03-15T18:38:46.016Z,0.36
2023-03-15T18:41:20.254Z,0.18
2023-03-15T18:43:49.800Z,0.18
2023-03-15T18:46:19.581Z,0.05
2023-03-15T18:48:47.898Z,0.13
2023-03-15T18:51:17.246Z,0.11
2023-03-15T18:53:46.933Z,-0.06
2023-03-15T18:56:19.169Z,-0.05
2023-03-15T18:58:46.697Z,0.18
2023-03-15T19:01:14.254Z,-0.18
2023-03-15T19:03:42.206Z,-0.32
2023-03-15T19:06:12.092Z,-0.50
2023-03-15T19:08:40.253Z,-0.44
2023-03-15T19:11:10.568Z,-0.18
2023-03-15T19:13:38.539Z,-0.51
2023-03-15T19:16:06.511Z,-0.63
2023-03-15T19:18:34.838Z,-0.55
2023-03-15T19:21:02.639Z,-0.17
2023-03-15T19:23:30.213Z,-0.45
2023-03-15T19:25:57.740Z,0.56
2023-03-15T19:28:26.564Z,-0.47
2023-03-15T19:30:54.241Z,-0.28
2023-03-15T19:33:21.745Z,-0.59
2023-03-15T19:35:49.257Z,-0.60
2023-03-15T19:38:17.385Z,0.20
2023-03-15T19:40:44.877Z,-0.53
2023-03-15T19:43:14.859Z,-0.92
2023-03-15T19:45:44.173Z,-0.97
2023-03-15T19:48:12.132Z,-1.05
2023-03-15T19:50:39.830Z,-1.00
2023-03-15T19:53:07.420Z,-1.11
2023-03-15T19:55:36.065Z,-1.18
2023-03-15T19:58:03.739Z,-1.29
2023-03-15T20:00:31.576Z,-1.21
2023-03-15T20:03:00.799Z,-1.02
2023-03-15T20:05:28.662Z,-0.96
2023-03-15T20:07:56.361Z,-1.14
2023-03-15T20:10:24.370Z,-1.32
2023-03-15T20:12:52.197Z,-1.19
2023-03-15T20:15:20.937Z,-1.43
2023-03-15T20:17:48.721Z,-0.41
2023-03-15T20:20:18.968Z,-1.35
2023-03-15T20:22:46.985Z,-1.31
2023-03-15T20:25:15.105Z,-1.38
2023-03-15T20:27:42.881Z,-1.48
2023-03-15T20:30:13.090Z,-1.54
2023-03-15T20:32:40.651Z,-1.56
2023-03-15T20:35:09.783Z,-1.48
2023-03-15T20:37:41.464Z,-1.64
2023-03-15T20:40:11.635Z,-1.69
2023-03-15T20:42:39.503Z,-1.72
2023-03-15T20:45:09.577Z,-1.70
2023-03-15T20:47:37.793Z,-1.79
2023-03-15T20:50:06.071Z,-1.84
2023-03-15T20:52:34.182Z,-1.86
2023-03-15T20:55:03.708Z,-1.78
2023-03-15T20:57:31.215Z,-1.35
2023-03-15T20:59:59.040Z,-1.83
2023-03-15T21:02:26.697Z,-1.99
2023-03-15T21:04:54.188Z,-2.03
2023-03-15T21:07:21.780Z,-2.03
2023-03-15T21:09:49.277Z,-2.05
2023-03-15T21:12:19.594Z,-2.04
2023-03-15T21:14:47.165Z,-2.12
2023-03-15T21:17:15.282Z,-2.17
2023-03-15T21:19:42.839Z,-2.16
2023-03-15T21:22:10.590Z,-2.13
2023-03-15T21:24:49.420Z,-1.92
2023-03-15T21:27:26.037Z,-1.83
2023-03-15T21:29:53.760Z,-1.97
2023-03-15T21:32:21.413Z,-2.12
2023-03-15T21:34:48.895Z,-2.13
2023-03-15T21:37:16.362Z,-2.20
2023-03-15T21:39:43.841Z,-2.29
2023-03-15T21:42:11.312Z,-2.32
2023-03-15T21:44:40.416Z,-2.39
2023-03-15T21:47:07.868Z,-2.41
2023-03-15T21:49:35.331Z,-2.41
2023-03-15T21:52:03.374Z,-2.36
2023-03-15T21:54:30.946Z,-2.39
2023-03-15T21:56:58.463Z,-2.32
2023-03-15T21:59:27.878Z,-2.39
2023-03-15T22:01:57.191Z,-2.45
2023-03-15T22:04:25.457Z,-2.41
2023-03-15T22:06:53.364Z,-2.43
2023-03-15T22:09:21.209Z,-2.51
2023-03-15T22:11:49.009Z,-2.45
2023-03-15T22:14:16.501Z,-2.56
2023-03-15T22:16:44.037Z,-2.60
2023-03-15T22:19:12.856Z,-2.56
2023-03-15T22:21:42.124Z,-2.11
2023-03-15T22:24:10.158Z,-2.30
2023-03-15T22:26:37.617Z,-2.10
2023-03-15T22:29:05.163Z,-2.32
2023-03-15T22:31:32.721Z,-2.53
2023-03-15T22:34:03.043Z,-2.60
2023-03-15T22:36:34.345Z,-2.51
2023-03-15T22:39:01.975Z,-2.45
2023-03-15T22:41:29.446Z,-2.13
2023-03-15T22:43:57.669Z,-2.24
2023-03-15T22:46:25.334Z,-1.93
2023-03-15T22:48:52.908Z,-1.69
2023-03-15T22:51:20.622Z,-1.53
2023-03-15T22:53:49.624Z,-1.66
2023-03-15T22:56:17.195Z,-1.45
2023-03-15T22:58:44.657Z,-1.43
2023-03-15T23:01:12.142Z,-1.49
2023-03-15T23:03:39.615Z,-1.53
2023-03-15T23:06:07.227Z,-1.40
2023-03-15T23:08:34.717Z,-1.67
2023-03-15T23:11:03.885Z,-1.61
2023-03-15T23:13:31.354Z,-1.29
2023-03-15T23:15:59.178Z,-1.33
2023-03-15T23:18:26.748Z,-1.38
2023-03-15T23:21:04.591Z,-1.49
2023-03-15T23:23:32.089Z,-1.42
2023-03-15T23:26:02.235Z,-1.55
2023-03-15T23:28:31.029Z,-1.49
2023-03-15T23:31:01.433Z,-1.42
2023-03-15T23:33:29.199Z,-1.46
2023-03-15T23:35:56.905Z,-1.46
2023-03-15T23:38:24.462Z,-1.69
2023-03-15T23:40:55.475Z,-1.62
2023-03-15T23:43:23.085Z,-1.48
2023-03-15T23:45:55.693Z,-1.64
2023-03-15T23:48:23.383Z,-1.99
2023-03-15T23:50:54.182Z,-2.00
2023-03-15T23:53:22.115Z,-1.89
2023-03-15T23:55:50.031Z,-1.61
2023-03-15T23:58:17.653Z,-1.71
